Time;durP1;ratioP1;P1;durP2;ratioP2;P2;SDS_P1;SDS_P2;PMS_P1;PMS_P2;Temp;Humidity;BMP_temperature;BMP_pressure;BME280_temperature;BME280_humidity;BME280_pressure;Samples;Min_cycle;Max_cycle;Signal;HPM_P1;HPM_P2
2023/06/29 00:01:03;;;;;;;11.43;9.20;;;;;;;19.72;83.54;101636.50;5002252;28;20117;-78
2023/06/29 00:03:30;;;;;;;10.30;9.02;;;;;;;19.72;83.70;101633.84;5009561;28;20033;-78
2023/06/29 00:05:55;;;;;;;9.55;8.60;;;;;;;19.72;83.94;101640.97;5003808;28;20341;-78
2023/06/29 00:08:29;;;;;;;12.77;10.32;;;;;;;19.70;84.07;101638.41;5004220;28;20114;-78
2023/06/29 00:10:55;;;;;;;14.73;9.90;;;;;;;19.70;84.01;101634.88;4988399;28;20084;-78
2023/06/29 00:13:22;;;;;;;12.93;10.02;;;;;;;19.69;83.81;101634.03;4986895;28;20038;-78
2023/06/29 00:15:48;;;;;;;15.13;10.93;;;;;;;19.69;84.03;101631.38;5008261;28;20037;-78
2023/06/29 00:18:14;;;;;;;12.88;9.90;;;;;;;19.69;84.31;101627.88;5007256;28;20051;-78
2023/06/29 00:20:40;;;;;;;15.52;11.50;;;;;;;19.69;84.26;101630.53;4986676;28;20026;-78
2023/06/29 00:23:06;;;;;;;12.93;10.20;;;;;;;19.69;84.37;101625.22;5005167;28;20891;-78
2023/06/29 00:25:32;;;;;;;12.60;10.35;;;;;;;19.68;84.42;101628.81;5003505;28;20038;-78
2023/06/29 00:27:57;;;;;;;11.70;10.43;;;;;;;19.68;84.48;101626.16;4996055;28;20065;-78
2023/06/29 00:30:23;;;;;;;11.52;9.63;;;;;;;19.69;84.44;101627.88;5011125;28;20037;-78
2023/06/29 00:32:48;;;;;;;12.07;10.55;;;;;;;19.68;84.46;101627.03;5015457;28;20147;-78
2023/06/29 00:35:14;;;;;;;14.52;10.30;;;;;;;19.68;84.49;101624.38;5034048;28;20045;-78
2023/06/29 00:37:40;;;;;;;13.68;10.27;;;;;;;19.67;84.77;101619.16;5035774;28;20067;-78
2023/06/29 00:40:06;;;;;;;12.85;10.57;;;;;;;19.67;84.67;101616.50;5021367;28;20041;-78
2023/06/29 00:42:31;;;;;;;13.02;10.18;;;;;;;19.67;84.95;101608.53;5015700;28;20363;-78
2023/06/29 00:44:57;;;;;;;13.05;10.70;;;;;;;19.65;84.91;101611.28;4997295;28;20022;-78
2023/06/29 00:47:22;;;;;;;12.15;10.52;;;;;;;19.65;84.97;101608.63;5015613;28;20047;-78
2023/06/29 00:49:48;;;;;;;12.63;9.95;;;;;;;19.65;85.06;101603.31;5015347;28;20041;-78
2023/06/29 00:52:13;;;;;;;13.95;10.27;;;;;;;19.65;85.13;101603.31;5015162;28;20048;-78
2023/06/29 00:54:39;;;;;;;11.63;10.38;;;;;;;19.66;84.89;101602.34;4997908;28;20045;-78
2023/06/29 00:57:04;;;;;;;12.65;10.50;;;;;;;19.66;84.99;101597.03;5015255;28;20037;-78
2023/06/29 00:59:30;;;;;;;13.38;10.45;;;;;;;19.64;85.33;101596.28;5015426;28;20140;-78
2023/06/29 01:04:33;;;;;;;15.40;10.80;;;;;;;19.64;85.04;101595.44;5139629;23;20072;-78
2023/06/29 01:07:06;;;;;;;13.55;10.60;;;;;;;19.64;85.22;101587.47;5018308;28;20238;-78
2023/06/29 01:09:33;;;;;;;12.18;10.45;;;;;;;19.62;85.15;101592.88;5026203;28;20038;-78
2023/06/29 01:11:59;;;;;;;12.13;10.13;;;;;;;19.62;85.41;101603.53;5013250;28;20030;-78
2023/06/29 01:14:26;;;;;;;11.20;9.98;;;;;;;19.62;85.40;101589.38;5020924;28;20324;-78
2023/06/29 01:16:54;;;;;;;11.15;9.07;;;;;;;19.61;85.32;101595.66;5013758;28;20101;-78
2023/06/29 01:19:25;;;;;;;14.10;11.25;;;;;;;19.60;85.46;101591.31;5015693;28;20038;-78
2023/06/29 01:22:02;;;;;;;13.63;10.32;;;;;;;19.60;85.30;101593.97;5014146;28;20203;-78
2023/06/29 01:24:36;;;;;;;12.48;10.32;;;;;;;19.59;85.24;101590.44;5014603;28;20080;-78
2023/06/29 01:27:03;;;;;;;12.32;10.38;;;;;;;19.58;85.52;101588.75;5015113;28;20368;-78
2023/06/29 01:29:28;;;;;;;11.00;9.88;;;;;;;19.58;85.47;101588.75;5015710;28;20053;-78
2023/06/29 01:32:00;;;;;;;10.50;9.43;;;;;;;19.56;85.66;101577.38;5006102;28;20220;-78
2023/06/29 01:34:28;;;;;;;12.65;10.15;;;;;;;19.56;85.69;101577.38;4999180;28;20083;-78
2023/06/29 01:37:01;;;;;;;12.15;9.75;;;;;;;19.55;86.03;101573.88;5005426;28;20038;-78
2023/06/29 01:39:32;;;;;;;12.13;10.35;;;;;;;19.55;86.12;101565.91;5008769;28;20026;-78
2023/06/29 01:41:59;;;;;;;12.10;10.60;;;;;;;19.55;86.20;101573.88;5008557;28;20332;-79
2023/06/29 01:44:25;;;;;;;14.52;11.60;;;;;;;19.54;86.41;101564.19;5016420;28;20038;-79
2023/06/29 01:46:52;;;;;;;12.52;10.70;;;;;;;19.55;86.49;101565.03;5014605;28;20025;-79
2023/06/29 01:49:17;;;;;;;15.60;11.60;;;;;;;19.54;86.84;101552.72;5016749;28;20091;-79
2023/06/29 01:51:43;;;;;;;14.00;11.35;;;;;;;19.53;87.05;101557.16;5016261;28;20598;-79
2023/06/29 01:54:08;;;;;;;16.98;11.80;;;;;;;19.51;87.10;101551.09;5015876;28;20049;-79
2023/06/29 01:56:34;;;;;;;14.35;11.05;;;;;;;19.53;87.37;101557.16;5016027;28;20104;-79
2023/06/29 01:59:01;;;;;;;19.02;13.63;;;;;;;19.53;87.67;101561.63;5017849;28;20045;-79
2023/06/29 02:01:27;;;;;;;14.70;11.50;;;;;;;19.51;88.10;101558.22;5019422;28;20277;-79
2023/06/29 02:03:53;;;;;;;15.65;12.43;;;;;;;19.50;88.56;101556.50;4999454;28;20060;-79
2023/06/29 02:06:18;;;;;;;16.15;11.80;;;;;;;19.50;88.47;101556.50;4995993;28;20229;-79
2023/06/29 02:08:44;;;;;;;15.07;11.30;;;;;;;19.49;88.39;101553.00;4983604;28;20026;-79
2023/06/29 02:11:10;;;;;;;13.65;11.30;;;;;;;19.49;88.60;101552.16;5012083;28;20057;-79
2023/06/29 02:13:35;;;;;;;15.57;11.75;;;;;;;19.49;88.52;101553.00;5002023;28;20548;-79
2023/06/29 02:16:00;;;;;;;13.45;11.13;;;;;;;19.48;88.36;101548.66;5004679;28;20046;-79
2023/06/29 02:18:26;;;;;;;14.30;11.10;;;;;;;19.47;88.34;101535.50;4999701;28;20080;-79
2023/06/29 02:20:51;;;;;;;18.10;12.30;;;;;;;19.48;88.80;101531.84;4998236;28;20037;-79
2023/06/29 02:23:16;;;;;;;18.23;12.68;;;;;;;19.48;89.38;101540.69;4997855;28;20050;-79
2023/06/29 02:25:42;;;;;;;15.85;12.40;;;;;;;19.48;89.67;101538.03;4999726;28;20042;-79
2023/06/29 02:28:07;;;;;;;13.30;11.25;;;;;;;19.48;89.57;101537.16;4997892;28;20088;-79
2023/06/29 02:30:33;;;;;;;16.20;12.73;;;;;;;19.47;89.74;101530.19;4999650;28;20249;-79
2023/06/29 02:32:58;;;;;;;18.95;13.13;;;;;;;19.47;89.75;101522.22;4998651;28;20053;-79
2023/06/29 02:35:23;;;;;;;17.02;11.95;;;;;;;19.47;89.97;101525.72;5018903;28;20037;-79
2023/06/29 02:37:49;;;;;;;16.05;12.65;;;;;;;19.47;89.70;101524.88;4994258;28;20367;-79
2023/06/29 02:40:14;;;;;;;23.83;16.45;;;;;;;19.46;89.94;101512.53;5003797;28;20042;-79
2023/06/29 02:42:39;;;;;;;18.83;13.55;;;;;;;19.44;90.01;101525.91;4998027;28;20394;-79
2023/06/29 02:45:06;;;;;;;19.98;14.65;;;;;;;19.44;90.26;101523.25;5003582;28;20041;-79
2023/06/29 02:47:31;;;;;;;23.25;15.65;;;;;;;19.45;90.34;101526.78;5018763;28;20026;-79
2023/06/29 02:49:58;;;;;;;18.33;13.45;;;;;;;19.44;89.97;101522.41;5014444;28;20085;-79
2023/06/29 02:52:24;;;;;;;21.42;14.07;;;;;;;19.44;89.88;101519.75;4997878;28;20053;-79
2023/06/29 02:54:49;;;;;;;16.60;12.48;;;;;;;19.44;89.71;101517.09;4997458;28;20057;-79
2023/06/29 02:57:15;;;;;;;21.95;15.10;;;;;;;19.43;89.74;101524.22;4999167;28;20038;-79
2023/06/29 02:59:40;;;;;;;19.13;13.27;;;;;;;19.44;89.62;101514.44;4998768;28;20034;-79
2023/06/29 03:02:05;;;;;;;18.48;14.10;;;;;;;19.43;89.80;101507.41;5000370;28;20026;-80
2023/06/29 03:04:31;;;;;;;18.83;13.73;;;;;;;19.44;89.72;101506.47;4995495;28;20105;-80
2023/06/29 03:06:56;;;;;;;22.42;15.68;;;;;;;19.43;90.03;101502.09;4998281;28;20036;-80
2023/06/29 03:09:22;;;;;;;17.75;13.95;;;;;;;19.43;89.88;101499.44;5010002;28;20073;-80
2023/06/29 03:11:47;;;;;;;19.92;15.23;;;;;;;19.42;90.06;101498.59;4997740;28;20052;-80
2023/06/29 03:14:12;;;;;;;18.83;14.20;;;;;;;19.42;89.92;101500.41;4997961;28;20037;-80
2023/06/29 03:16:38;;;;;;;17.42;14.20;;;;;;;19.43;90.15;101499.44;5017408;28;20048;-80
2023/06/29 03:19:04;;;;;;;16.17;12.48;;;;;;;19.41;89.89;101499.56;5001706;28;20045;-80
2023/06/29 03:21:29;;;;;;;17.88;12.75;;;;;;;19.42;89.92;101497.75;4998147;28;20046;-80
2023/06/29 03:23:55;;;;;;;19.08;13.77;;;;;;;19.42;89.91;101495.09;4998079;28;20034;-80
2023/06/29 03:26:20;;;;;;;21.77;15.55;;;;;;;19.42;89.61;101500.41;5010926;28;20042;-80
2023/06/29 03:28:45;;;;;;;24.45;16.00;;;;;;;19.41;89.97;101498.69;5017398;28;20227;-80
2023/06/29 03:31:11;;;;;;;19.92;14.65;;;;;;;19.41;90.05;101486.28;5016658;28;20276;-80
2023/06/29 03:33:37;;;;;;;20.90;15.35;;;;;;;19.41;89.92;101485.41;4996402;28;20026;-80
2023/06/29 03:36:04;;;;;;;20.50;15.57;;;;;;;19.41;89.97;101488.94;5006867;28;20216;-80
2023/06/29 03:38:30;;;;;;;19.60;14.65;;;;;;;19.40;89.64;101487.22;5016620;28;20034;-80
2023/06/29 03:40:55;;;;;;;21.60;14.80;;;;;;;19.38;89.58;101476.72;4997183;28;20041;-80
2023/06/29 03:43:20;;;;;;;20.45;14.82;;;;;;;19.40;89.55;101489.03;4997854;28;20058;-80
2023/06/29 03:45:46;;;;;;;21.40;15.15;;;;;;;19.38;89.63;101484.69;4999285;28;20030;-80
2023/06/29 03:48:11;;;;;;;21.33;14.15;;;;;;;19.37;89.51;101483.00;5016741;28;20033;-80
2023/06/29 03:50:37;;;;;;;21.52;14.60;;;;;;;19.37;89.38;101483.00;5015236;28;20044;-80
2023/06/29 03:53:02;;;;;;;16.08;12.45;;;;;;;19.37;89.21;101488.31;5016180;28;20321;-80
2023/06/29 03:55:27;;;;;;;17.27;13.95;;;;;;;19.36;89.17;101483.94;4995636;28;20353;-80
2023/06/29 03:57:54;;;;;;;18.60;13.65;;;;;;;19.35;89.23;101479.56;4995343;28;20029;-80
2023/06/29 04:00:20;;;;;;;19.50;14.27;;;;;;;19.35;89.21;101486.69;4996781;28;20061;-80
2023/06/29 04:02:45;;;;;;;19.17;13.30;;;;;;;19.35;88.75;101484.88;4997127;28;20049;-80
2023/06/29 04:05:11;;;;;;;20.02;13.93;;;;;;;19.34;88.66;101480.53;5008667;28;20062;-80
2023/06/29 04:07:36;;;;;;;18.08;13.93;;;;;;;19.34;89.05;101483.19;4997484;28;20328;-80
2023/06/29 04:10:02;;;;;;;13.90;11.48;;;;;;;19.34;88.62;101480.53;4991676;28;20038;-80
2023/06/29 04:12:27;;;;;;;19.50;12.70;;;;;;;19.33;88.79;101476.16;5016442;28;20066;-80
2023/06/29 04:14:53;;;;;;;17.08;13.05;;;;;;;19.33;88.78;101472.66;5016046;28;20116;-80
2023/06/29 04:17:18;;;;;;;16.02;12.27;;;;;;;19.33;88.64;101472.66;5016064;28;20049;-80
2023/06/29 04:19:43;;;;;;;16.08;12.48;;;;;;;19.32;88.55;101482.44;4997677;28;20100;-80
2023/06/29 04:22:09;;;;;;;16.65;12.93;;;;;;;19.32;88.55;101468.31;5015629;28;20026;-80
2023/06/29 04:24:34;;;;;;;15.55;11.90;;;;;;;19.32;88.50;101473.63;5016323;28;20044;-80
2023/06/29 04:27:00;;;;;;;19.35;14.35;;;;;;;19.30;88.47;101473.75;5015862;28;20089;-80
2023/06/29 04:29:25;;;;;;;14.43;12.27;;;;;;;19.30;88.45;101473.75;5016093;28;20058;-80
2023/06/29 04:31:52;;;;;;;16.30;12.43;;;;;;;19.29;88.16;101465.88;4997779;28;20033;-80
2023/06/29 04:34:17;;;;;;;18.17;12.63;;;;;;;19.29;88.25;101473.84;5005526;28;20034;-80
2023/06/29 04:36:46;;;;;;;15.43;12.30;;;;;;;19.27;88.22;101467.78;4995455;28;20085;-80
2023/06/29 04:39:15;;;;;;;13.60;11.27;;;;;;;19.27;88.08;101473.94;4995963;28;20042;-80
2023/06/29 04:41:41;;;;;;;19.60;13.02;;;;;;;19.27;87.89;101463.31;4995682;28;20339;-80
2023/06/29 04:44:10;;;;;;;15.50;11.95;;;;;;;19.26;87.98;101461.59;4994624;28;20034;-80
2023/06/29 04:46:39;;;;;;;15.35;12.43;;;;;;;19.26;87.82;101460.75;4996547;28;20064;-80
2023/06/29 04:49:06;;;;;;;15.63;13.20;;;;;;;19.25;87.46;101467.03;4994804;28;20034;-80
2023/06/29 04:51:35;;;;;;;13.60;11.32;;;;;;;19.25;87.58;101462.56;4996561;28;20117;-80
2023/06/29 04:54:01;;;;;;;19.05;13.55;;;;;;;19.24;87.53;101460.00;4995809;28;20041;-80
2023/06/29 04:56:27;;;;;;;17.70;13.40;;;;;;;19.25;87.57;101472.34;4996310;28;20026;-80
2023/06/29 04:58:52;;;;;;;14.50;12.05;;;;;;;19.23;87.35;101463.59;4995787;28;20322;-80
2023/06/29 05:01:18;;;;;;;17.30;13.77;;;;;;;19.23;87.40;101469.78;4996221;28;20137;-80
2023/06/29 05:03:43;;;;;;;16.27;12.32;;;;;;;19.23;87.26;101467.13;4997980;28;20061;-80
2023/06/29 05:06:08;;;;;;;19.58;15.00;;;;;;;19.23;87.36;101474.22;4997706;28;20415;-80
2023/06/29 05:08:34;;;;;;;15.95;12.15;;;;;;;19.22;87.69;101468.06;5014693;28;20042;-80
2023/06/29 05:10:59;;;;;;;16.85;13.05;;;;;;;19.22;87.24;101460.09;5013543;28;20052;-80
2023/06/29 05:13:25;;;;;;;16.10;13.25;;;;;;;19.22;87.47;101461.94;5015875;28;20236;-80
2023/06/29 05:15:50;;;;;;;16.35;13.55;;;;;;;19.22;87.53;101468.06;4997664;28;20034;-80
2023/06/29 05:18:16;;;;;;;17.95;13.73;;;;;;;19.21;87.36;101458.44;4998013;28;20092;-80
2023/06/29 05:20:41;;;;;;;19.02;14.13;;;;;;;19.21;87.49;101461.09;4999474;28;20069;-80
2023/06/29 05:23:09;;;;;;;18.83;14.07;;;;;;;19.20;87.39;101454.06;4995534;28;20113;-80
2023/06/29 05:25:35;;;;;;;17.77;14.38;;;;;;;19.20;87.44;101451.41;4995971;28;20034;-80
2023/06/29 05:28:00;;;;;;;18.65;13.68;;;;;;;19.20;87.39;101448.75;4994897;28;20101;-80
2023/06/29 05:30:26;;;;;;;22.15;15.43;;;;;;;19.20;87.48;101451.41;5004516;28;20034;-80
2023/06/29 05:32:51;;;;;;;18.98;14.13;;;;;;;19.21;87.70;101450.47;5001056;28;20029;-80
2023/06/29 05:35:17;;;;;;;21.55;15.23;;;;;;;19.21;87.39;101454.91;4998065;28;20037;-80
2023/06/29 05:37:42;;;;;;;21.83;16.00;;;;;;;19.20;87.45;101442.59;5002001;28;20034;-80
2023/06/29 05:40:08;;;;;;;22.50;15.55;;;;;;;19.19;87.41;101449.69;5004728;28;20355;-80
2023/06/29 05:42:33;;;;;;;19.58;14.68;;;;;;;19.19;87.46;101455.00;4999364;28;20069;-77
2023/06/29 05:44:59;;;;;;;21.42;14.48;;;;;;;19.20;87.71;101456.72;4998864;28;20049;-77
2023/06/29 05:47:24;;;;;;;26.00;18.75;;;;;;;19.19;87.79;101455.00;4999403;28;20034;-77
2023/06/29 05:49:50;;;;;;;25.50;17.10;;;;;;;19.20;87.63;101450.56;4998977;28;20038;-77
2023/06/29 05:52:15;;;;;;;24.90;18.35;;;;;;;19.19;87.59;101457.66;4999000;28;20113;-77
2023/06/29 05:54:41;;;;;;;25.83;18.55;;;;;;;19.18;87.99;101456.81;4999154;28;20069;-77
2023/06/29 05:57:06;;;;;;;26.70;17.85;;;;;;;19.19;87.80;101449.69;4998450;28;20038;-77
2023/06/29 05:59:31;;;;;;;28.75;19.27;;;;;;;19.20;87.72;101464.69;4999263;28;20038;-77
2023/06/29 06:01:57;;;;;;;28.52;19.38;;;;;;;19.19;87.73;101468.28;4998241;28;20347;-77
2023/06/29 06:04:23;;;;;;;25.73;18.77;;;;;;;19.19;87.71;101455.00;5009736;28;20100;-77
2023/06/29 06:06:48;;;;;;;26.17;17.58;;;;;;;19.20;87.81;101456.72;4999506;28;20486;-77
2023/06/29 06:09:14;;;;;;;29.15;18.67;;;;;;;19.20;88.05;101461.19;5010919;28;20034;-77
2023/06/29 06:11:39;;;;;;;27.10;18.45;;;;;;;19.21;87.96;101465.50;4999053;28;20041;-77
2023/06/29 06:14:04;;;;;;;28.83;18.40;;;;;;;19.19;88.03;101452.34;4998041;28;20101;-77
2023/06/29 06:16:30;;;;;;;27.30;18.30;;;;;;;19.18;88.00;101448.00;4998777;28;20026;-77
2023/06/29 06:18:55;;;;;;;25.63;17.85;;;;;;;19.18;88.10;101454.16;4997919;28;20042;-77
2023/06/29 06:21:21;;;;;;;29.33;19.30;;;;;;;19.17;88.16;101449.81;4982362;28;20037;-77
2023/06/29 06:23:46;;;;;;;27.10;18.90;;;;;;;19.20;88.40;101445.25;4998769;28;20323;-77
2023/06/29 06:26:12;;;;;;;30.13;18.67;;;;;;;19.19;88.25;101455.00;4998207;28;20034;-77
2023/06/29 06:28:37;;;;;;;29.60;20.15;;;;;;;19.20;88.32;101455.88;4998740;28;20033;-77
2023/06/29 06:31:02;;;;;;;26.33;17.35;;;;;;;19.21;88.44;101453.13;4997474;28;20034;-76
2023/06/29 06:33:30;;;;;;;27.83;20.23;;;;;;;19.22;88.58;101452.16;5001200;28;20044;-77
2023/06/29 06:35:56;;;;;;;28.23;20.13;;;;;;;19.23;88.57;101456.50;5016041;28;20100;-77
2023/06/29 06:38:21;;;;;;;31.83;20.92;;;;;;;19.24;88.39;101444.91;5017130;28;20040;-77
2023/06/29 06:40:47;;;;;;;27.23;18.48;;;;;;;19.24;88.34;101452.03;4980572;28;20097;-77
2023/06/29 06:43:12;;;;;;;44.63;25.02;;;;;;;19.26;88.51;101453.63;4997323;28;20033;-77
2023/06/29 06:45:38;;;;;;;32.75;20.17;;;;;;;19.27;88.66;101454.50;4997022;28;20030;-77
2023/06/29 06:48:04;;;;;;;36.38;22.23;;;;;;;19.28;88.62;101453.53;4996152;28;20260;-77
2023/06/29 06:50:29;;;;;;;46.10;24.65;;;;;;;19.30;88.77;101443.66;4996850;28;20046;-77
2023/06/29 06:52:55;;;;;;;33.63;22.10;;;;;;;19.30;88.49;101451.63;4991639;28;20032;-77
2023/06/29 06:55:20;;;;;;;33.28;21.67;;;;;;;19.31;88.36;101451.53;5016318;28;20025;-77
2023/06/29 06:57:47;;;;;;;37.15;23.17;;;;;;;19.34;88.21;101451.31;5016155;28;20045;-76
2023/06/29 07:00:13;;;;;;;30.95;20.73;;;;;;;19.35;88.56;101453.00;5005677;28;20034;-76
2023/06/29 07:02:39;;;;;;;28.33;19.38;;;;;;;19.36;88.42;101454.72;4996544;28;20042;-77
2023/06/29 07:05:05;;;;;;;25.70;17.83;;;;;;;19.39;88.23;101453.66;4996538;28;20056;-77
2023/06/29 07:07:31;;;;;;;27.98;19.95;;;;;;;19.40;87.88;101458.03;4997243;28;20046;-77
2023/06/29 07:09:56;;;;;;;31.63;19.98;;;;;;;19.42;88.15;101450.78;4994402;28;20376;-77
2023/06/29 07:12:21;;;;;;;25.17;16.65;;;;;;;19.44;88.12;101454.19;4996819;28;20042;-77
2023/06/29 07:14:47;;;;;;;26.65;17.77;;;;;;;19.46;87.96;101454.09;4995981;28;20033;-77
2023/06/29 07:17:12;;;;;;;38.70;21.83;;;;;;;19.48;87.45;101460.16;4996241;28;20042;-77
2023/06/29 07:19:38;;;;;;;23.50;17.88;;;;;;;19.49;87.86;101457.38;4996803;28;20034;-77
2023/06/29 07:22:03;;;;;;;22.38;16.98;;;;;;;19.51;87.61;101457.28;4996024;28;20057;-77
2023/06/29 07:24:29;;;;;;;29.38;19.77;;;;;;;19.54;87.71;101454.44;4998010;28;20429;-77
2023/06/29 07:26:54;;;;;;;38.30;23.60;;;;;;;19.56;88.65;101455.16;4992587;28;20403;-76
2023/06/29 07:29:20;;;;;;;32.42;22.17;;;;;;;19.57;88.32;101448.88;4991759;28;20033;-76
2023/06/29 07:31:46;;;;;;;38.13;22.92;;;;;;;19.58;88.57;101447.94;4994645;28;20037;-76
2023/06/29 07:34:11;;;;;;;30.83;20.33;;;;;;;19.59;88.30;101449.63;4995691;28;20046;-76
2023/06/29 07:36:37;;;;;;;33.03;20.25;;;;;;;19.59;88.14;101443.47;4994894;28;20245;-77
2023/06/29 07:39:03;;;;;;;24.08;18.48;;;;;;;19.60;88.04;101445.19;4994748;28;20415;-77
2023/06/29 07:41:28;;;;;;;24.60;18.25;;;;;;;19.61;87.95;101439.78;4978765;28;20241;-77
2023/06/29 07:43:55;;;;;;;22.95;16.83;;;;;;;19.64;87.72;101442.19;4992356;28;20292;-76
2023/06/29 07:46:22;;;;;;;22.10;16.13;;;;;;;19.65;87.54;101438.59;4997199;28;20030;-77
2023/06/29 07:48:48;;;;;;;20.15;16.50;;;;;;;19.68;87.65;101441.03;4995398;28;20065;-77
2023/06/29 07:51:14;;;;;;;21.58;16.92;;;;;;;19.70;87.37;101436.47;4995767;28;20042;-76
2023/06/29 07:53:39;;;;;;;17.17;15.00;;;;;;;19.72;87.41;101434.53;4996083;28;20101;-76
2023/06/29 07:56:05;;;;;;;18.45;14.50;;;;;;;19.75;87.27;101434.38;4995431;28;20074;-76
2023/06/29 07:58:30;;;;;;;21.13;15.80;;;;;;;19.80;87.42;101431.38;4994844;28;20121;-77
2023/06/29 08:00:56;;;;;;;21.13;15.80;;;;;;;19.83;87.57;101433.81;4992471;28;20036;-77
2023/06/29 08:03:22;;;;;;;19.17;14.02;;;;;;;19.85;87.48;101425.75;4996807;28;20510;-77
2023/06/29 08:05:48;;;;;;;21.35;16.42;;;;;;;19.87;87.21;101437.97;4994954;28;20046;-76
2023/06/29 08:08:13;;;;;;;23.45;15.90;;;;;;;19.88;87.28;101429.03;4995279;28;20321;-77
2023/06/29 08:10:39;;;;;;;22.17;16.40;;;;;;;19.90;87.39;101436.88;4994820;28;20041;-77
2023/06/29 08:13:04;;;;;;;20.15;14.88;;;;;;;19.89;87.32;101436.03;4977394;28;20022;-76
2023/06/29 08:15:30;;;;;;;19.13;15.32;;;;;;;19.90;87.04;101429.78;4995380;28;20226;-77
2023/06/29 08:17:55;;;;;;;21.00;14.93;;;;;;;19.92;87.19;101435.00;4994566;28;20045;-77
2023/06/29 08:20:22;;;;;;;23.67;16.58;;;;;;;19.90;87.86;101437.75;4995518;28;20062;-76
2023/06/29 08:22:48;;;;;;;20.20;14.30;;;;;;;19.91;87.23;101430.63;4995190;28;20030;-76
2023/06/29 08:25:14;;;;;;;20.67;15.80;;;;;;;19.90;87.24;101432.44;4996395;28;20252;-77
2023/06/29 08:27:41;;;;;;;25.80;18.73;;;;;;;19.90;87.84;101429.78;4996002;28;20046;-77
2023/06/29 08:30:07;;;;;;;23.23;17.33;;;;;;;19.90;88.54;101421.81;4994010;28;20278;-76
2023/06/29 08:32:32;;;;;;;19.17;15.27;;;;;;;19.91;88.57;101414.69;4996456;28;20343;-77
2023/06/29 08:34:58;;;;;;;19.38;15.30;;;;;;;19.91;88.64;101418.19;5000742;28;20299;-77
2023/06/29 08:37:23;;;;;;;22.58;14.32;;;;;;;19.92;88.35;101419.88;4995657;28;20045;-77
2023/06/29 08:39:48;;;;;;;19.33;15.13;;;;;;;19.93;88.58;101418.91;4985075;28;20374;-77
2023/06/29 08:42:14;;;;;;;18.67;15.38;;;;;;;19.94;88.34;101425.09;4995546;28;20355;-77
2023/06/29 08:44:40;;;;;;;20.27;14.90;;;;;;;19.95;88.29;101424.13;4999415;28;20038;-77
2023/06/29 08:47:06;;;;;;;17.35;13.82;;;;;;;19.96;88.05;101425.84;4995678;28;20057;-77
2023/06/29 08:49:35;;;;;;;18.33;14.02;;;;;;;19.97;87.88;101430.19;4995734;28;20041;-76
2023/06/29 08:52:03;;;;;;;20.63;15.00;;;;;;;19.97;87.93;101430.19;4995897;28;20021;-76
2023/06/29 08:54:31;;;;;;;18.13;15.13;;;;;;;19.98;88.19;101423.06;5004192;28;20046;-77
2023/06/29 08:56:58;;;;;;;19.27;14.43;;;;;;;20.00;88.10;101421.16;4996353;28;20027;-77
2023/06/29 08:59:26;;;;;;;17.77;13.95;;;;;;;19.99;88.04;101420.28;4994106;28;20042;-77
2023/06/29 09:01:51;;;;;;;21.98;15.63;;;;;;;20.01;87.86;101425.50;4995164;28;20365;-77
2023/06/29 09:04:17;;;;;;;19.42;14.18;;;;;;;20.02;87.50;101427.22;5000875;28;20058;-76
2023/06/29 09:06:42;;;;;;;19.33;14.73;;;;;;;20.03;87.22;101424.44;5001818;28;20065;-77
2023/06/29 09:09:08;;;;;;;19.35;15.43;;;;;;;20.04;87.18;101431.44;4995693;28;20299;-77
2023/06/29 09:11:35;;;;;;;23.42;17.23;;;;;;;20.05;87.01;101429.66;4997497;28;20141;-77
2023/06/29 09:14:05;;;;;;;17.35;14.07;;;;;;;20.05;87.06;101434.97;5008424;28;20052;-77
2023/06/29 09:16:30;;;;;;;17.70;14.35;;;;;;;20.07;86.95;101431.22;5002608;28;20096;-76
2023/06/29 09:18:57;;;;;;;21.13;14.25;;;;;;;20.10;86.90;101428.38;5001405;28;20093;-77
2023/06/29 09:21:23;;;;;;;18.50;13.85;;;;;;;20.14;86.41;101431.66;4983035;28;20044;-77
2023/06/29 09:23:49;;;;;;;23.38;16.23;;;;;;;20.16;87.35;101424.41;5001566;28;20278;-77
2023/06/29 09:26:17;;;;;;;18.40;15.02;;;;;;;20.21;87.31;101432.03;5001751;28;20038;-77
2023/06/29 09:28:46;;;;;;;21.60;15.40;;;;;;;20.23;87.23;101416.81;5002015;28;20363;-77
2023/06/29 09:31:12;;;;;;;18.00;13.68;;;;;;;20.25;86.81;101430.88;5002090;28;20041;-76
2023/06/29 09:33:37;;;;;;;14.18;12.40;;;;;;;20.27;86.37;101420.97;5006727;28;20044;-77
2023/06/29 09:36:07;;;;;;;14.77;11.93;;;;;;;20.29;86.18;101421.72;5001973;28;20050;-76
2023/06/29 09:38:33;;;;;;;15.90;12.43;;;;;;;20.32;86.13;101426.81;5000820;28;20101;-77
2023/06/29 09:40:59;;;;;;;14.00;11.18;;;;;;;20.33;85.97;101417.84;4992074;28;20034;-77
2023/06/29 09:43:29;;;;;;;14.18;11.07;;;;;;;20.36;85.65;101430.09;5000578;28;20030;-77
2023/06/29 09:46:14;;;;;;;12.77;11.43;;;;;;;20.40;85.76;101427.09;5001038;28;20034;-77
2023/06/29 09:48:46;;;;;;;11.68;10.35;;;;;;;20.43;85.49;101423.34;5010503;28;20050;-77
2023/06/29 09:51:22;;;;;;;14.27;11.50;;;;;;;20.45;85.49;101422.28;5000094;28;20232;-77
2023/06/29 09:53:48;;;;;;;16.80;11.20;;;;;;;20.46;85.33;101423.13;5001608;28;20037;-77
2023/06/29 09:56:13;;;;;;;10.50;9.40;;;;;;;20.45;85.34;101422.28;5001943;28;20360;-77
2023/06/29 09:58:39;;;;;;;14.10;11.18;;;;;;;20.46;85.29;101423.97;5007795;28;20034;-77
2023/06/29 10:01:04;;;;;;;19.25;12.45;;;;;;;20.46;85.01;101423.13;5009158;28;20046;-76
2023/06/29 10:03:31;;;;;;;15.90;11.15;;;;;;;20.45;85.36;101426.78;5005080;28;20099;-77
2023/06/29 10:06:13;;;;;;;12.65;10.02;;;;;;;20.46;85.29;101431.94;5002319;28;20428;-76
2023/06/29 10:08:40;;;;;;;12.32;9.75;;;;;;;20.47;85.16;101420.38;5000216;28;20026;-77
2023/06/29 10:11:06;;;;;;;21.08;10.02;;;;;;;20.48;84.78;101424.75;4971838;28;20143;-77
2023/06/29 10:13:38;;;;;;;11.75;9.18;;;;;;;20.51;84.70;101427.16;4979499;28;20221;-76
2023/06/29 10:16:08;;;;;;;10.30;8.32;;;;;;;20.52;84.65;101428.03;4982638;28;20026;-76
2023/06/29 10:18:39;;;;;;;10.52;8.05;;;;;;;20.52;84.51;101423.53;4996289;28;20327;-77
2023/06/29 10:21:05;;;;;;;11.82;8.57;;;;;;;20.55;84.03;101432.25;4996570;28;20038;-77
2023/06/29 10:23:31;;;;;;;10.05;8.32;;;;;;;20.56;83.99;101431.31;4998095;28;20106;-76
2023/06/29 10:25:58;;;;;;;12.25;9.27;;;;;;;20.56;84.39;101424.16;4997501;28;20045;-77
2023/06/29 10:28:24;;;;;;;13.65;10.88;;;;;;;20.63;85.27;101432.56;4997051;28;20300;-77
2023/06/29 10:30:50;;;;;;;12.90;9.15;;;;;;;20.63;84.76;101430.78;4997698;28;20061;-77
2023/06/29 10:33:22;;;;;;;11.52;8.90;;;;;;;20.65;84.42;101426.19;4999966;28;20210;-76
2023/06/29 10:35:55;;;;;;;10.75;9.65;;;;;;;20.67;84.38;101426.06;4999927;28;20055;-76
2023/06/29 10:38:27;;;;;;;9.50;8.02;;;;;;;20.68;83.87;101431.28;4997963;28;20034;-77
2023/06/29 10:40:53;;;;;;;8.93;8.05;;;;;;;20.69;83.92;101432.97;4987630;28;20236;-76
2023/06/29 10:43:18;;;;;;;12.38;8.77;;;;;;;20.69;83.77;101429.47;4998004;28;20094;-76
2023/06/29 10:45:43;;;;;;;8.68;7.88;;;;;;;20.70;83.50;101420.50;4977321;28;20031;-77
2023/06/29 10:48:13;;;;;;;9.98;7.95;;;;;;;20.71;83.47;101415.06;4997091;28;20088;-77
2023/06/29 10:50:43;;;;;;;9.20;8.32;;;;;;;20.74;83.30;101418.47;4979855;28;20034;-76
2023/06/29 10:53:14;;;;;;;8.35;7.55;;;;;;;20.76;83.20;101419.22;4994163;28;20112;-76
2023/06/29 10:55:39;;;;;;;8.75;7.75;;;;;;;20.78;82.90;101418.13;4978399;28;20023;-77
2023/06/29 10:58:17;;;;;;;14.23;10.47;;;;;;;20.82;83.51;101422.25;4996047;28;20040;-76
2023/06/29 11:00:43;;;;;;;11.38;8.98;;;;;;;20.86;83.82;101425.53;5000522;28;20275;-77
2023/06/29 11:03:10;;;;;;;13.63;9.23;;;;;;;20.87;83.49;101417.44;4978416;28;20130;-77
2023/06/29 11:05:35;;;;;;;14.18;9.32;;;;;;;20.88;83.25;101416.47;4996586;28;20049;-76
2023/06/29 11:08:01;;;;;;;13.90;8.75;;;;;;;20.88;83.27;101416.47;4977702;28;20030;-77